sensor_id;sensor_type;location;lat;lon;timestamp;P1;durP1;ratioP1;P2;durP2;ratioP2
68888;SDS011;55930;47.412;8.790;2023-03-21T09:45:21;3.63;;;2.55;;
68888;SDS011;55930;47.412;8.790;2023-03-21T09:49:01;3.28;;;2.42;;
68888;SDS011;55930;47.412;8.790;2023-03-21T09:52:31;2.75;;;2.30;;
68888;SDS011;55930;47.412;8.790;2023-03-21T09:56:00;3.00;;;2.20;;
68888;SDS011;55930;47.412;8.790;2023-03-21T09:59:24;6.88;;;2.58;;
68888;SDS011;55930;47.412;8.790;2023-03-21T10:02:46;2.95;;;2.17;;
68888;SDS011;55930;47.412;8.790;2023-03-21T10:06:12;2.78;;;2.30;;
68888;SDS011;55930;47.412;8.790;2023-03-21T10:09:34;4.20;;;2.58;;
68888;SDS011;55930;47.412;8.790;2023-03-21T10:12:58;5.28;;;2.58;;
68888;SDS011;55930;47.412;8.790;2023-03-21T10:16:31;3.25;;;2.47;;
68888;SDS011;55930;47.412;8.790;2023-03-21T10:20:17;3.75;;;2.65;;
68888;SDS011;55930;47.412;8.790;2023-03-21T10:23:36;3.85;;;2.50;;
68888;SDS011;55930;47.412;8.790;2023-03-21T10:26:56;3.25;;;2.50;;
68888;SDS011;55930;47.412;8.790;2023-03-21T10:33:42;4.10;;;2.60;;
68888;SDS011;55930;47.412;8.790;2023-03-21T10:37:07;4.55;;;2.40;;
68888;SDS011;55930;47.412;8.790;2023-03-21T10:47:36;4.78;;;2.95;;
68888;SDS011;55930;47.412;8.790;2023-03-21T10:54:18;4.50;;;2.57;;
68888;SDS011;55930;47.412;8.790;2023-03-21T10:57:41;3.90;;;2.65;;
68888;SDS011;55930;47.412;8.790;2023-03-21T11:04:25;5.30;;;2.83;;
68888;SDS011;55930;47.412;8.790;2023-03-21T11:11:39;3.40;;;2.65;;
68888;SDS011;55930;47.412;8.790;2023-03-21T11:15:28;5.63;;;3.22;;
68888;SDS011;55930;47.412;8.790;2023-03-21T11:18:55;5.82;;;3.05;;
68888;SDS011;55930;47.412;8.790;2023-03-21T11:22:21;3.35;;;2.35;;
68888;SDS011;55930;47.412;8.790;2023-03-21T11:25:42;3.50;;;3.00;;
68888;SDS011;55930;47.412;8.790;2023-03-21T11:29:13;5.03;;;3.38;;
68888;SDS011;55930;47.412;8.790;2023-03-21T11:32:45;5.90;;;2.92;;
68888;SDS011;55930;47.412;8.790;2023-03-21T11:39:39;3.78;;;2.95;;
68888;SDS011;55930;47.412;8.790;2023-03-21T11:46:39;3.38;;;2.92;;
68888;SDS011;55930;47.412;8.790;2023-03-21T11:50:00;4.93;;;3.13;;
68888;SDS011;55930;47.412;8.790;2023-03-21T12:08:42;2.75;;;2.22;;
68888;SDS011;55930;47.412;8.790;2023-03-21T12:26:21;2.55;;;1.90;;
68888;SDS011;55930;47.412;8.790;2023-03-21T12:44:15;5.50;;;2.22;;
68888;SDS011;55930;47.412;8.790;2023-03-21T12:47:40;2.45;;;2.03;;
68888;SDS011;55930;47.412;8.790;2023-03-21T12:51:10;2.60;;;2.00;;
68888;SDS011;55930;47.412;8.790;2023-03-21T12:54:41;3.55;;;2.40;;
68888;SDS011;55930;47.412;8.790;2023-03-21T12:58:09;3.17;;;2.40;;
68888;SDS011;55930;47.412;8.790;2023-03-21T13:01:37;2.30;;;2.10;;
68888;SDS011;55930;47.412;8.790;2023-03-21T13:08:55;2.17;;;1.77;;
68888;SDS011;55930;47.412;8.790;2023-03-21T13:12:38;4.82;;;2.08;;
68888;SDS011;55930;47.412;8.790;2023-03-21T13:22:53;3.25;;;2.00;;
68888;SDS011;55930;47.412;8.790;2023-03-21T13:26:14;3.00;;;2.28;;
68888;SDS011;55930;47.412;8.790;2023-03-21T13:30:21;2.22;;;1.90;;
68888;SDS011;55930;47.412;8.790;2023-03-21T13:33:22;2.30;;;2.10;;
68888;SDS011;55930;47.412;8.790;2023-03-21T13:36:49;2.38;;;2.00;;
68888;SDS011;55930;47.412;8.790;2023-03-21T13:51:00;2.72;;;1.60;;
68888;SDS011;55930;47.412;8.790;2023-03-21T13:57:58;3.58;;;1.63;;
68888;SDS011;55930;47.412;8.790;2023-03-21T14:01:25;2.55;;;1.80;;
68888;SDS011;55930;47.412;8.790;2023-03-21T14:04:57;3.28;;;1.80;;
68888;SDS011;55930;47.412;8.790;2023-03-21T14:08:20;2.45;;;1.90;;
68888;SDS011;55930;47.412;8.790;2023-03-21T14:11:41;3.25;;;1.85;;
68888;SDS011;55930;47.412;8.790;2023-03-21T14:15:05;3.45;;;1.80;;
68888;SDS011;55930;47.412;8.790;2023-03-21T14:18:39;1.83;;;1.40;;
68888;SDS011;55930;47.412;8.790;2023-03-21T14:22:02;2.22;;;1.90;;
68888;SDS011;55930;47.412;8.790;2023-03-21T14:25:23;2.28;;;1.70;;
68888;SDS011;55930;47.412;8.790;2023-03-21T14:28:51;4.43;;;1.70;;
68888;SDS011;55930;47.412;8.790;2023-03-21T14:32:18;2.00;;;1.38;;
68888;SDS011;55930;47.412;8.790;2023-03-21T14:35:42;2.63;;;1.83;;
68888;SDS011;55930;47.412;8.790;2023-03-21T14:39:09;11.43;;;2.20;;
68888;SDS011;55930;47.412;8.790;2023-03-21T14:42:35;2.33;;;1.60;;
68888;SDS011;55930;47.412;8.790;2023-03-21T14:45:56;2.10;;;1.70;;
68888;SDS011;55930;47.412;8.790;2023-03-21T14:52:46;3.47;;;1.70;;
68888;SDS011;55930;47.412;8.790;2023-03-21T14:56:16;3.60;;;1.90;;
68888;SDS011;55930;47.412;8.790;2023-03-21T14:59:40;3.50;;;2.05;;
68888;SDS011;55930;47.412;8.790;2023-03-21T15:03:01;2.83;;;2.10;;
68888;SDS011;55930;47.412;8.790;2023-03-21T15:09:44;2.45;;;2.05;;
68888;SDS011;55930;47.412;8.790;2023-03-21T15:13:15;3.38;;;2.00;;
68888;SDS011;55930;47.412;8.790;2023-03-21T15:16:38;3.92;;;1.90;;
68888;SDS011;55930;47.412;8.790;2023-03-21T15:23:40;2.95;;;2.15;;
68888;SDS011;55930;47.412;8.790;2023-03-21T15:27:14;5.30;;;2.08;;
68888;SDS011;55930;47.412;8.790;2023-03-21T15:30:36;3.30;;;2.20;;
68888;SDS011;55930;47.412;8.790;2023-03-21T15:37:25;2.33;;;2.08;;
68888;SDS011;55930;47.412;8.790;2023-03-21T15:40:47;8.25;;;2.22;;
68888;SDS011;55930;47.412;8.790;2023-03-21T15:47:38;2.70;;;1.80;;
68888;SDS011;55930;47.412;8.790;2023-03-21T15:51:11;3.65;;;2.08;;
68888;SDS011;55930;47.412;8.790;2023-03-21T15:54:43;4.55;;;2.20;;
68888;SDS011;55930;47.412;8.790;2023-03-21T15:58:16;2.88;;;2.22;;
68888;SDS011;55930;47.412;8.790;2023-03-21T16:01:43;4.70;;;2.35;;
68888;SDS011;55930;47.412;8.790;2023-03-21T16:05:23;4.00;;;2.20;;
68888;SDS011;55930;47.412;8.790;2023-03-21T16:08:48;1.73;;;1.63;;
68888;SDS011;55930;47.412;8.790;2023-03-21T16:12:12;4.03;;;2.05;;
68888;SDS011;55930;47.412;8.790;2023-03-21T16:15:34;2.53;;;2.10;;
68888;SDS011;55930;47.412;8.790;2023-03-21T16:22:16;5.43;;;2.22;;
68888;SDS011;55930;47.412;8.790;2023-03-21T16:25:39;3.50;;;1.90;;
68888;SDS011;55930;47.412;8.790;2023-03-21T16:29:00;5.32;;;1.80;;
68888;SDS011;55930;47.412;8.790;2023-03-21T16:32:21;2.78;;;1.80;;
68888;SDS011;55930;47.412;8.790;2023-03-21T16:39:10;3.53;;;1.80;;
68888;SDS011;55930;47.412;8.790;2023-03-21T16:42:39;2.50;;;1.95;;
68888;SDS011;55930;47.412;8.790;2023-03-21T16:45:59;4.15;;;2.00;;
68888;SDS011;55930;47.412;8.790;2023-03-21T16:49:24;3.72;;;2.15;;
68888;SDS011;55930;47.412;8.790;2023-03-21T16:52:47;3.40;;;2.20;;
68888;SDS011;55930;47.412;8.790;2023-03-21T16:59:44;3.75;;;2.40;;
68888;SDS011;55930;47.412;8.790;2023-03-21T17:03:07;3.95;;;2.00;;
68888;SDS011;55930;47.412;8.790;2023-03-21T17:06:35;3.65;;;2.10;;
68888;SDS011;55930;47.412;8.790;2023-03-21T17:10:03;6.50;;;2.60;;
68888;SDS011;55930;47.412;8.790;2023-03-21T17:13:29;4.35;;;2.50;;
68888;SDS011;55930;47.412;8.790;2023-03-21T17:16:50;2.80;;;1.80;;
68888;SDS011;55930;47.412;8.790;2023-03-21T17:20:11;3.00;;;1.67;;
68888;SDS011;55930;47.412;8.790;2023-03-21T17:23:43;5.50;;;1.90;;
68888;SDS011;55930;47.412;8.790;2023-03-21T17:27:10;3.83;;;2.25;;
68888;SDS011;55930;47.412;8.790;2023-03-21T17:30:34;5.25;;;2.13;;
68888;SDS011;55930;47.412;8.790;2023-03-21T17:33:56;4.65;;;2.20;;
68888;SDS011;55930;47.412;8.790;2023-03-21T17:37:17;3.15;;;2.28;;
68888;SDS011;55930;47.412;8.790;2023-03-21T17:43:58;4.57;;;2.17;;
68888;SDS011;55930;47.412;8.790;2023-03-21T17:47:19;3.95;;;2.67;;
68888;SDS011;55930;47.412;8.790;2023-03-21T17:50:44;3.28;;;2.45;;
68888;SDS011;55930;47.412;8.790;2023-03-21T17:54:05;6.20;;;4.45;;
68888;SDS011;55930;47.412;8.790;2023-03-21T17:57:25;6.10;;;4.00;;
68888;SDS011;55930;47.412;8.790;2023-03-21T18:00:46;6.03;;;3.33;;
68888;SDS011;55930;47.412;8.790;2023-03-21T18:04:06;6.90;;;3.23;;
68888;SDS011;55930;47.412;8.790;2023-03-21T18:07:27;11.27;;;3.63;;
68888;SDS011;55930;47.412;8.790;2023-03-21T18:10:48;4.75;;;3.25;;
68888;SDS011;55930;47.412;8.790;2023-03-21T18:14:08;7.87;;;3.60;;
68888;SDS011;55930;47.412;8.790;2023-03-21T18:17:29;5.72;;;3.40;;
68888;SDS011;55930;47.412;8.790;2023-03-21T18:20:49;6.55;;;4.53;;
68888;SDS011;55930;47.412;8.790;2023-03-21T18:24:10;9.63;;;3.33;;
68888;SDS011;55930;47.412;8.790;2023-03-21T18:27:30;5.57;;;3.70;;
68888;SDS011;55930;47.412;8.790;2023-03-21T18:30:51;5.75;;;3.33;;
68888;SDS011;55930;47.412;8.790;2023-03-21T18:34:12;5.43;;;3.67;;
68888;SDS011;55930;47.412;8.790;2023-03-21T18:37:33;9.00;;;4.00;;
68888;SDS011;55930;47.412;8.790;2023-03-21T18:40:54;4.30;;;3.23;;
68888;SDS011;55930;47.412;8.790;2023-03-21T18:44:14;4.93;;;3.55;;
68888;SDS011;55930;47.412;8.790;2023-03-21T18:47:38;6.85;;;5.78;;
68888;SDS011;55930;47.412;8.790;2023-03-21T18:50:58;7.90;;;3.80;;
68888;SDS011;55930;47.412;8.790;2023-03-21T18:54:19;8.25;;;4.00;;
68888;SDS011;55930;47.412;8.790;2023-03-21T18:57:42;7.10;;;4.68;;
68888;SDS011;55930;47.412;8.790;2023-03-21T19:01:03;8.97;;;4.87;;
68888;SDS011;55930;47.412;8.790;2023-03-21T19:04:23;16.20;;;4.30;;
68888;SDS011;55930;47.412;8.790;2023-03-21T19:07:44;5.90;;;3.93;;
68888;SDS011;55930;47.412;8.790;2023-03-21T19:11:06;8.88;;;4.32;;
68888;SDS011;55930;47.412;8.790;2023-03-21T19:14:28;6.80;;;4.60;;
68888;SDS011;55930;47.412;8.790;2023-03-21T19:17:49;15.77;;;13.77;;
68888;SDS011;55930;47.412;8.790;2023-03-21T19:21:10;15.73;;;10.80;;
68888;SDS011;55930;47.412;8.790;2023-03-21T19:24:34;10.47;;;5.80;;
68888;SDS011;55930;47.412;8.790;2023-03-21T19:27:54;8.65;;;4.75;;
68888;SDS011;55930;47.412;8.790;2023-03-21T19:31:15;6.90;;;4.88;;
68888;SDS011;55930;47.412;8.790;2023-03-21T19:34:36;9.40;;;6.35;;
68888;SDS011;55930;47.412;8.790;2023-03-21T19:37:57;9.83;;;6.90;;
68888;SDS011;55930;47.412;8.790;2023-03-21T19:41:18;7.63;;;5.93;;
68888;SDS011;55930;47.412;8.790;2023-03-21T19:44:39;8.15;;;5.68;;
68888;SDS011;55930;47.412;8.790;2023-03-21T19:47:59;10.13;;;5.70;;
68888;SDS011;55930;47.412;8.790;2023-03-21T19:51:20;11.88;;;5.72;;
68888;SDS011;55930;47.412;8.790;2023-03-21T19:54:41;9.20;;;4.88;;
68888;SDS011;55930;47.412;8.790;2023-03-21T19:58:02;9.77;;;5.40;;
68888;SDS011;55930;47.412;8.790;2023-03-21T20:01:23;7.47;;;4.60;;
68888;SDS011;55930;47.412;8.790;2023-03-21T20:04:46;8.77;;;4.15;;
68888;SDS011;55930;47.412;8.790;2023-03-21T20:08:07;5.83;;;4.03;;
68888;SDS011;55930;47.412;8.790;2023-03-21T20:11:28;6.75;;;3.85;;
68888;SDS011;55930;47.412;8.790;2023-03-21T20:14:48;4.70;;;3.30;;
68888;SDS011;55930;47.412;8.790;2023-03-21T20:18:09;5.50;;;3.88;;
68888;SDS011;55930;47.412;8.790;2023-03-21T20:21:33;5.97;;;3.67;;
68888;SDS011;55930;47.412;8.790;2023-03-21T20:24:53;10.80;;;5.63;;
68888;SDS011;55930;47.412;8.790;2023-03-21T20:28:14;5.80;;;3.97;;
68888;SDS011;55930;47.412;8.790;2023-03-21T20:31:36;5.55;;;3.42;;
68888;SDS011;55930;47.412;8.790;2023-03-21T20:34:57;7.65;;;3.70;;
68888;SDS011;55930;47.412;8.790;2023-03-21T20:38:18;5.40;;;4.18;;
68888;SDS011;55930;47.412;8.790;2023-03-21T20:41:39;4.88;;;3.15;;
68888;SDS011;55930;47.412;8.790;2023-03-21T20:45:00;14.93;;;3.53;;
68888;SDS011;55930;47.412;8.790;2023-03-21T20:48:20;3.60;;;2.73;;
68888;SDS011;55930;47.412;8.790;2023-03-21T20:51:40;6.10;;;3.00;;
68888;SDS011;55930;47.412;8.790;2023-03-21T20:55:06;6.00;;;3.28;;
68888;SDS011;55930;47.412;8.790;2023-03-21T20:58:28;6.55;;;3.30;;
68888;SDS011;55930;47.412;8.790;2023-03-21T21:01:53;7.40;;;3.15;;
68888;SDS011;55930;47.412;8.790;2023-03-21T21:05:16;4.50;;;3.30;;
68888;SDS011;55930;47.412;8.790;2023-03-21T21:08:39;4.57;;;3.58;;
68888;SDS011;55930;47.412;8.790;2023-03-21T21:12:00;3.95;;;2.90;;
68888;SDS011;55930;47.412;8.790;2023-03-21T21:15:20;5.23;;;3.20;;
68888;SDS011;55930;47.412;8.790;2023-03-21T21:18:41;6.20;;;3.60;;
68888;SDS011;55930;47.412;8.790;2023-03-21T21:22:01;3.47;;;2.97;;
68888;SDS011;55930;47.412;8.790;2023-03-21T21:25:24;5.78;;;3.65;;
68888;SDS011;55930;47.412;8.790;2023-03-21T21:28:45;4.97;;;3.43;;
68888;SDS011;55930;47.412;8.790;2023-03-21T21:32:06;5.70;;;3.00;;
68888;SDS011;55930;47.412;8.790;2023-03-21T21:35:31;5.10;;;3.25;;
68888;SDS011;55930;47.412;8.790;2023-03-21T21:38:55;5.05;;;3.17;;
68888;SDS011;55930;47.412;8.790;2023-03-21T21:42:16;5.20;;;3.23;;
68888;SDS011;55930;47.412;8.790;2023-03-21T21:45:36;7.33;;;3.30;;
68888;SDS011;55930;47.412;8.790;2023-03-21T21:48:57;4.60;;;3.10;;
68888;SDS011;55930;47.412;8.790;2023-03-21T21:52:18;5.95;;;3.30;;
68888;SDS011;55930;47.412;8.790;2023-03-21T21:55:43;9.10;;;4.10;;
68888;SDS011;55930;47.412;8.790;2023-03-21T21:59:06;6.70;;;3.78;;
68888;SDS011;55930;47.412;8.790;2023-03-21T22:02:29;5.85;;;3.53;;
68888;SDS011;55930;47.412;8.790;2023-03-21T22:05:52;6.82;;;3.85;;
68888;SDS011;55930;47.412;8.790;2023-03-21T22:09:20;7.97;;;3.60;;
68888;SDS011;55930;47.412;8.790;2023-03-21T22:12:41;7.82;;;4.05;;
68888;SDS011;55930;47.412;8.790;2023-03-21T22:16:03;7.80;;;4.50;;
68888;SDS011;55930;47.412;8.790;2023-03-21T22:19:25;7.95;;;4.85;;
68888;SDS011;55930;47.412;8.790;2023-03-21T22:22:46;6.38;;;4.68;;
68888;SDS011;55930;47.412;8.790;2023-03-21T22:26:07;6.70;;;4.90;;
68888;SDS011;55930;47.412;8.790;2023-03-21T22:29:28;5.47;;;4.35;;
68888;SDS011;55930;47.412;8.790;2023-03-21T22:32:51;6.93;;;5.00;;
68888;SDS011;55930;47.412;8.790;2023-03-21T22:36:11;7.27;;;5.07;;
68888;SDS011;55930;47.412;8.790;2023-03-21T22:39:32;5.27;;;3.97;;
68888;SDS011;55930;47.412;8.790;2023-03-21T22:42:55;9.30;;;5.13;;
68888;SDS011;55930;47.412;8.790;2023-03-21T22:46:15;7.55;;;5.30;;
68888;SDS011;55930;47.412;8.790;2023-03-21T22:49:38;7.50;;;5.47;;
68888;SDS011;55930;47.412;8.790;2023-03-21T22:53:01;9.02;;;5.05;;
68888;SDS011;55930;47.412;8.790;2023-03-21T22:56:21;7.90;;;5.47;;
68888;SDS011;55930;47.412;8.790;2023-03-21T22:59:42;7.23;;;5.20;;
68888;SDS011;55930;47.412;8.790;2023-03-21T23:03:03;8.15;;;4.90;;
68888;SDS011;55930;47.412;8.790;2023-03-21T23:06:23;7.93;;;5.30;;
68888;SDS011;55930;47.412;8.790;2023-03-21T23:09:44;5.90;;;4.27;;
68888;SDS011;55930;47.412;8.790;2023-03-21T23:13:06;6.68;;;4.68;;
68888;SDS011;55930;47.412;8.790;2023-03-21T23:16:27;5.93;;;4.37;;
68888;SDS011;55930;47.412;8.790;2023-03-21T23:19:47;6.40;;;4.40;;
68888;SDS011;55930;47.412;8.790;2023-03-21T23:23:10;10.03;;;4.33;;
68888;SDS011;55930;47.412;8.790;2023-03-21T23:26:31;6.78;;;4.60;;
68888;SDS011;55930;47.412;8.790;2023-03-21T23:29:52;8.37;;;5.43;;
68888;SDS011;55930;47.412;8.790;2023-03-21T23:33:13;6.38;;;4.65;;
68888;SDS011;55930;47.412;8.790;2023-03-21T23:36:33;8.80;;;4.93;;
68888;SDS011;55930;47.412;8.790;2023-03-21T23:39:54;8.73;;;4.80;;
68888;SDS011;55930;47.412;8.790;2023-03-21T23:43:14;7.37;;;4.67;;
68888;SDS011;55930;47.412;8.790;2023-03-21T23:46:37;8.00;;;4.15;;
68888;SDS011;55930;47.412;8.790;2023-03-21T23:49:57;5.33;;;4.10;;
68888;SDS011;55930;47.412;8.790;2023-03-21T23:53:18;6.97;;;4.17;;
68888;SDS011;55930;47.412;8.790;2023-03-21T23:56:42;7.93;;;4.13;;
